Time;durP1;ratioP1;P1;durP2;ratioP2;P2;SDS_P1;SDS_P2;PMS_P1;PMS_P2;Temp;Humidity;BMP_temperature;BMP_pressure;BME280_temperature;BME280_humidity;BME280_pressure;Samples;Min_cycle;Max_cycle;Signal;HPM_P1;HPM_P2
2022/03/29 00:02:16;;;;;;;5.60;2.80;;;;;;;;;;107467;1271;64945;-31
2022/03/29 00:04:46;;;;;;;5.10;2.70;;;;;;;;;;107428;1270;64836;-31
2022/03/29 00:07:13;;;;;;;5.10;2.40;;;;;;;;;;107290;1271;64843;-31
2022/03/29 00:09:43;;;;;;;5.20;2.50;;;;;;;;;;107436;1270;64893;-31
2022/03/29 00:12:10;;;;;;;5.30;2.40;;;;;;;;;;107462;1271;64851;-31
2022/03/29 00:14:38;;;;;;;5.60;2.70;;;;;;;;;;107449;1271;64731;-31
2022/03/29 00:17:05;;;;;;;5.60;2.80;;;;;;;;;;107420;1270;64869;-31
2022/03/29 00:19:53;;;;;;;5.40;2.90;;;;;;;;;;107181;1272;64732;-31
2022/03/29 00:22:42;;;;;;;5.20;2.50;;;;;;;;;;107429;1271;65004;-31
2022/03/29 00:25:10;;;;;;;4.60;2.50;;;;;;;;;;107327;1274;65177;-31
2022/03/29 00:27:38;;;;;;;4.50;2.20;;;;;;;;;;107449;1271;64882;-30
2022/03/29 00:30:07;;;;;;;4.60;2.50;;;;;;;;;;107337;1271;64862;-31
2022/03/29 00:32:41;;;;;;;5.00;2.50;;;;;;;;;;107455;1271;64834;-31
2022/03/29 00:35:09;;;;;;;5.30;2.80;;;;;;;;;;107423;1271;64834;-31
2022/03/29 00:37:38;;;;;;;4.70;2.60;;;;;;;;;;107503;1270;64773;-31
2022/03/29 00:40:06;;;;;;;5.00;2.20;;;;;;;;;;107457;1270;64840;-30
2022/03/29 00:42:34;;;;;;;5.20;2.80;;;;;;;;;;107320;1271;64842;-31
2022/03/29 00:45:01;;;;;;;4.70;2.50;;;;;;;;;;107343;1271;64759;-31
2022/03/29 00:47:28;;;;;;;5.00;2.50;;;;;;;;;;107439;1271;64825;-31
2022/03/29 00:49:58;;;;;;;5.50;3.10;;;;;;;;;;107445;1270;64868;-30
2022/03/29 00:52:28;;;;;;;4.30;2.50;;;;;;;;;;107474;1271;64792;-31
2022/03/29 00:55:00;;;;;;;5.00;2.60;;;;;;;;;;107424;1271;64776;-31
2022/03/29 00:57:28;;;;;;;5.60;2.80;;;;;;;;;;107459;1271;64836;-32
2022/03/29 00:59:56;;;;;;;5.10;2.80;;;;;;;;;;107460;1271;64867;-31
2022/03/29 01:02:23;;;;;;;5.80;2.60;;;;;;;;;;107468;1271;64690;-31
2022/03/29 01:04:53;;;;;;;4.60;2.20;;;;;;;;;;107446;1271;65180;-31
2022/03/29 01:07:20;;;;;;;5.30;2.70;;;;;;;;;;107444;1271;64865;-31
2022/03/29 01:09:47;;;;;;;5.20;2.70;;;;;;;;;;107437;1271;64750;-31
2022/03/29 01:12:15;;;;;;;5.50;2.90;;;;;;;;;;107440;1271;64871;-31
2022/03/29 01:14:47;;;;;;;5.40;2.80;;;;;;;;;;107479;1271;64884;-31
2022/03/29 01:20:01;;;;;;;4.30;2.40;;;;;;;;;;107436;1271;64862;-32
2022/03/29 01:22:29;;;;;;;4.30;2.60;;;;;;;;;;107435;1271;64834;-32
2022/03/29 01:24:59;;;;;;;5.40;2.80;;;;;;;;;;107461;1271;64872;-32
2022/03/29 01:27:31;;;;;;;5.00;2.50;;;;;;;;;;107467;1271;64875;-32
2022/03/29 01:30:02;;;;;;;6.30;3.60;;;;;;;;;;107444;1271;64765;-32
2022/03/29 01:32:35;;;;;;;6.50;3.50;;;;;;;;;;107330;1271;64766;-31
2022/03/29 01:35:03;;;;;;;5.70;2.80;;;;;;;;;;107460;1271;64849;-31
2022/03/29 01:37:30;;;;;;;4.40;2.60;;;;;;;;;;107456;1271;64741;-31
2022/03/29 01:40:25;;;;;;;4.40;2.50;;;;;;;;;;107468;1271;64777;-31
2022/03/29 01:42:57;;;;;;;4.40;2.60;;;;;;;;;;107452;1271;65226;-31
2022/03/29 01:45:31;;;;;;;5.10;2.70;;;;;;;;;;107446;1271;64756;-32
2022/03/29 01:48:02;;;;;;;4.60;2.80;;;;;;;;;;107440;1271;65429;-31
2022/03/29 01:50:30;;;;;;;5.70;2.70;;;;;;;;;;107442;1271;64756;-32
2022/03/29 01:52:57;;;;;;;5.30;3.00;;;;;;;;;;107451;1271;64705;-31
2022/03/29 01:55:27;;;;;;;4.40;2.50;;;;;;;;;;107442;1271;64827;-31
2022/03/29 01:57:57;;;;;;;5.10;2.80;;;;;;;;;;107307;1272;64753;-31
2022/03/29 02:00:38;;;;;;;4.50;2.80;;;;;;;;;;107445;1271;64753;-31
2022/03/29 02:03:06;;;;;;;4.80;2.70;;;;;;;;;;107454;1270;64785;-30
2022/03/29 02:05:37;;;;;;;4.80;2.80;;;;;;;;;;107442;1271;64749;-31
2022/03/29 02:08:04;;;;;;;5.40;2.70;;;;;;;;;;107488;1270;65427;-31
2022/03/29 02:10:34;;;;;;;5.30;2.80;;;;;;;;;;107447;1271;64858;-30
2022/03/29 02:13:01;;;;;;;5.00;2.40;;;;;;;;;;107446;1271;64929;-31
2022/03/29 02:15:31;;;;;;;4.50;2.50;;;;;;;;;;107437;1271;64884;-30
2022/03/29 02:18:01;;;;;;;4.50;2.50;;;;;;;;;;107480;1271;64881;-31
2022/03/29 02:20:31;;;;;;;4.30;2.20;;;;;;;;;;107487;1271;64849;-31
2022/03/29 02:23:09;;;;;;;6.00;2.60;;;;;;;;;;107446;1271;65182;-30
2022/03/29 02:25:36;;;;;;;5.50;2.60;;;;;;;;;;107488;1271;64825;-31
2022/03/29 02:28:05;;;;;;;5.30;2.80;;;;;;;;;;107464;1271;64747;-31
2022/03/29 02:30:36;;;;;;;4.80;2.50;;;;;;;;;;107495;1271;64825;-31
2022/03/29 02:33:04;;;;;;;5.40;2.60;;;;;;;;;;107295;1271;64699;-30
2022/03/29 02:35:32;;;;;;;4.60;2.40;;;;;;;;;;107483;1271;64731;-31
2022/03/29 02:38:02;;;;;;;4.80;2.60;;;;;;;;;;107380;1271;64890;-31
2022/03/29 02:40:32;;;;;;;5.00;2.60;;;;;;;;;;107425;1271;64988;-30
2022/03/29 02:43:03;;;;;;;5.10;2.40;;;;;;;;;;107482;1271;64744;-31
2022/03/29 02:45:30;;;;;;;4.70;2.80;;;;;;;;;;107473;1271;64773;-32
2022/03/29 02:47:58;;;;;;;4.40;2.40;;;;;;;;;;107460;1271;64848;-31
2022/03/29 02:50:26;;;;;;;5.70;2.80;;;;;;;;;;107442;1271;64861;-30
2022/03/29 02:52:59;;;;;;;4.60;2.50;;;;;;;;;;107451;1271;64743;-32
2022/03/29 02:55:29;;;;;;;4.90;2.90;;;;;;;;;;107474;1271;64948;-31
2022/03/29 02:57:59;;;;;;;4.70;2.50;;;;;;;;;;107466;1271;64741;-31
2022/03/29 03:00:30;;;;;;;5.20;2.70;;;;;;;;;;107426;1271;64879;-31
2022/03/29 03:03:03;;;;;;;4.70;2.20;;;;;;;;;;107463;1271;64740;-31
2022/03/29 03:05:31;;;;;;;5.20;2.50;;;;;;;;;;107283;1271;64754;-32
2022/03/29 03:08:02;;;;;;;4.60;2.60;;;;;;;;;;107466;1271;64866;-31
2022/03/29 03:10:30;;;;;;;6.10;2.60;;;;;;;;;;107487;1271;64874;-30
2022/03/29 03:12:57;;;;;;;4.80;2.60;;;;;;;;;;107438;1271;64824;-31
2022/03/29 03:15:25;;;;;;;4.80;2.70;;;;;;;;;;107330;1271;64869;-31
2022/03/29 03:17:55;;;;;;;4.80;2.70;;;;;;;;;;107481;1271;64750;-32
2022/03/29 03:20:24;;;;;;;5.10;2.90;;;;;;;;;;107462;1271;64767;-31
2022/03/29 03:22:54;;;;;;;4.90;2.70;;;;;;;;;;107484;1271;64830;-30
2022/03/29 03:25:24;;;;;;;4.60;2.60;;;;;;;;;;107455;1271;64953;-31
2022/03/29 03:27:54;;;;;;;5.00;2.80;;;;;;;;;;107473;1271;64773;-32
2022/03/29 03:30:24;;;;;;;4.70;2.80;;;;;;;;;;107295;1271;64789;-31
2022/03/29 03:32:55;;;;;;;4.40;2.50;;;;;;;;;;107313;1272;64868;-30
2022/03/29 03:35:25;;;;;;;4.90;2.50;;;;;;;;;;107386;1271;64957;-31
2022/03/29 03:37:56;;;;;;;4.80;2.40;;;;;;;;;;107457;1271;64746;-30
2022/03/29 03:40:27;;;;;;;4.50;2.50;;;;;;;;;;107450;1271;64875;-31
2022/03/29 03:42:57;;;;;;;6.00;2.80;;;;;;;;;;107422;1271;65173;-31
2022/03/29 03:45:29;;;;;;;5.30;2.90;;;;;;;;;;107445;1271;64854;-31
2022/03/29 03:47:56;;;;;;;5.30;2.80;;;;;;;;;;107462;1271;64958;-31
2022/03/29 03:50:26;;;;;;;6.40;2.60;;;;;;;;;;107447;1271;65310;-31
2022/03/29 03:53:00;;;;;;;4.40;2.70;;;;;;;;;;107346;1272;64865;-31
2022/03/29 03:55:36;;;;;;;5.60;2.90;;;;;;;;;;107469;1271;64712;-31
2022/03/29 03:58:03;;;;;;;4.50;2.50;;;;;;;;;;107342;1272;64769;-31
2022/03/29 04:00:30;;;;;;;4.70;2.90;;;;;;;;;;107440;1271;64981;-31
2022/03/29 04:03:01;;;;;;;5.40;2.80;;;;;;;;;;107438;1271;64963;-32
2022/03/29 04:05:34;;;;;;;4.60;2.50;;;;;;;;;;107450;1271;64846;-31
2022/03/29 04:08:01;;;;;;;4.80;2.60;;;;;;;;;;107429;1271;64740;-31
2022/03/29 04:10:28;;;;;;;5.20;3.00;;;;;;;;;;107389;1271;64718;-31
2022/03/29 04:12:55;;;;;;;5.20;2.80;;;;;;;;;;107447;1271;65529;-31
2022/03/29 04:15:22;;;;;;;5.60;2.70;;;;;;;;;;107451;1271;64884;-29
2022/03/29 04:17:49;;;;;;;4.80;2.50;;;;;;;;;;107350;1271;64880;-32
2022/03/29 04:20:16;;;;;;;4.80;2.40;;;;;;;;;;107422;1270;64826;-32
2022/03/29 04:22:46;;;;;;;5.00;2.70;;;;;;;;;;107538;1271;64771;-32
2022/03/29 04:25:13;;;;;;;5.00;2.70;;;;;;;;;;107468;1271;64737;-32
2022/03/29 04:27:43;;;;;;;5.50;2.40;;;;;;;;;;107202;1271;312492;-31
2022/03/29 04:30:11;;;;;;;4.90;2.70;;;;;;;;;;107447;1271;64833;-31
2022/03/29 04:32:41;;;;;;;4.30;2.60;;;;;;;;;;107452;1271;64829;-32
2022/03/29 04:35:09;;;;;;;4.80;2.60;;;;;;;;;;107420;1271;64833;-32
2022/03/29 04:37:39;;;;;;;4.90;2.80;;;;;;;;;;107483;1271;64740;-31
2022/03/29 04:40:08;;;;;;;4.80;3.00;;;;;;;;;;107439;1271;64696;-31
2022/03/29 04:42:46;;;;;;;5.20;2.60;;;;;;;;;;107488;1271;64955;-32
2022/03/29 04:45:18;;;;;;;4.80;2.80;;;;;;;;;;107431;1271;64926;-32
2022/03/29 04:47:48;;;;;;;4.80;2.50;;;;;;;;;;107476;1270;64848;-32
2022/03/29 04:50:17;;;;;;;4.70;2.70;;;;;;;;;;107487;1271;64859;-32
2022/03/29 04:52:47;;;;;;;4.60;2.60;;;;;;;;;;107531;1271;64857;-31
2022/03/29 04:55:15;;;;;;;4.80;2.50;;;;;;;;;;107462;1271;65441;-31
2022/03/29 04:57:43;;;;;;;4.60;2.90;;;;;;;;;;107450;1271;64904;-31
2022/03/29 05:00:12;;;;;;;5.70;2.90;;;;;;;;;;107493;1271;65308;-31
2022/03/29 05:02:41;;;;;;;5.20;3.00;;;;;;;;;;107487;1270;64712;-32
2022/03/29 05:05:11;;;;;;;4.90;2.70;;;;;;;;;;107476;1271;64888;-33
2022/03/29 05:07:42;;;;;;;5.30;2.90;;;;;;;;;;107294;1270;64829;-33
2022/03/29 05:10:11;;;;;;;5.10;2.70;;;;;;;;;;107466;1271;64741;-33
2022/03/29 05:12:43;;;;;;;4.90;2.80;;;;;;;;;;107498;1271;64767;-32
2022/03/29 05:15:11;;;;;;;5.30;2.90;;;;;;;;;;107480;1271;64737;-31
2022/03/29 05:17:42;;;;;;;4.50;2.70;;;;;;;;;;107301;1274;64862;-31
2022/03/29 05:20:11;;;;;;;4.90;2.90;;;;;;;;;;107491;1271;64718;-30
2022/03/29 05:22:48;;;;;;;5.30;3.10;;;;;;;;;;107464;1271;64731;-32
2022/03/29 05:25:17;;;;;;;5.20;2.70;;;;;;;;;;107453;1270;64749;-32
2022/03/29 05:27:44;;;;;;;5.30;2.80;;;;;;;;;;107484;1271;64964;-32
2022/03/29 05:30:13;;;;;;;5.40;2.90;;;;;;;;;;107327;1272;64734;-31
2022/03/29 05:32:40;;;;;;;5.10;2.80;;;;;;;;;;107466;1271;64885;-32
2022/03/29 05:35:08;;;;;;;4.80;2.90;;;;;;;;;;107387;1271;64865;-32
2022/03/29 05:37:36;;;;;;;4.70;2.80;;;;;;;;;;107522;1271;64746;-32
2022/03/29 05:40:07;;;;;;;5.10;3.00;;;;;;;;;;107447;1271;65162;-32
2022/03/29 05:42:41;;;;;;;4.70;2.90;;;;;;;;;;107478;1271;64820;-32
2022/03/29 05:45:10;;;;;;;5.20;2.90;;;;;;;;;;107481;1271;64755;-32
2022/03/29 05:50:30;;;;;;;5.10;3.00;;;;;;;;;;107493;1271;64855;-33
2022/03/29 05:52:58;;;;;;;5.00;2.80;;;;;;;;;;107488;1271;64876;-33
2022/03/29 05:55:28;;;;;;;5.30;2.70;;;;;;;;;;107476;1271;64753;-30
2022/03/29 05:57:58;;;;;;;4.90;2.80;;;;;;;;;;107471;1271;64721;-32
2022/03/29 06:00:31;;;;;;;5.00;3.20;;;;;;;;;;107432;1271;64799;-32
2022/03/29 06:02:58;;;;;;;5.10;3.20;;;;;;;;;;107411;1271;66023;-31
2022/03/29 06:05:25;;;;;;;5.60;3.10;;;;;;;;;;107458;1271;64843;-30
2022/03/29 06:07:55;;;;;;;5.00;2.90;;;;;;;;;;107447;1271;64852;-31
2022/03/29 06:10:25;;;;;;;5.10;2.80;;;;;;;;;;107455;1271;64894;-31
2022/03/29 06:12:54;;;;;;;4.80;3.20;;;;;;;;;;107444;1271;65183;-31
2022/03/29 06:15:21;;;;;;;5.00;2.60;;;;;;;;;;107465;1274;64897;-31
2022/03/29 06:17:48;;;;;;;5.40;3.00;;;;;;;;;;107462;1271;64754;-30
2022/03/29 06:20:19;;;;;;;5.90;2.80;;;;;;;;;;107454;1271;64867;-30
2022/03/29 06:22:49;;;;;;;5.90;3.10;;;;;;;;;;107457;1271;64825;-31
2022/03/29 06:25:20;;;;;;;5.30;2.90;;;;;;;;;;107426;1271;64925;-32
2022/03/29 06:27:50;;;;;;;5.40;2.90;;;;;;;;;;107320;1271;65978;-35
2022/03/29 06:30:17;;;;;;;5.10;2.90;;;;;;;;;;107340;1271;64932;-31
2022/03/29 06:32:52;;;;;;;5.40;3.20;;;;;;;;;;107284;1271;64898;-31
2022/03/29 06:35:23;;;;;;;6.10;3.10;;;;;;;;;;107478;1271;64809;-31
2022/03/29 06:37:52;;;;;;;5.30;3.10;;;;;;;;;;107329;1274;64669;-33
2022/03/29 06:40:23;;;;;;;6.10;4.00;;;;;;;;;;107219;1274;64747;-35
2022/03/29 06:42:51;;;;;;;6.00;4.00;;;;;;;;;;107286;1271;65104;-31
2022/03/29 06:45:18;;;;;;;9.50;4.70;;;;;;;;;;107394;1271;64834;-31
2022/03/29 06:47:45;;;;;;;6.50;4.50;;;;;;;;;;107348;1271;64748;-37
2022/03/29 06:50:13;;;;;;;6.50;4.40;;;;;;;;;;107248;1272;64793;-31
2022/03/29 06:52:42;;;;;;;5.60;4.00;;;;;;;;;;107420;1271;64754;-29
2022/03/29 06:55:11;;;;;;;6.10;4.90;;;;;;;;;;107393;1271;64833;-27
2022/03/29 06:57:39;;;;;;;6.90;4.70;;;;;;;;;;107292;1271;64756;-25
2022/03/29 07:00:12;;;;;;;6.60;4.60;;;;;;;;;;107277;1271;65021;-26
2022/03/29 07:02:39;;;;;;;6.90;4.00;;;;;;;;;;107320;1271;64709;-29
2022/03/29 07:05:07;;;;;;;7.50;4.70;;;;;;;;;;107276;1271;64993;-25
2022/03/29 07:07:34;;;;;;;6.70;4.90;;;;;;;;;;107293;1271;64737;-27
2022/03/29 07:12:53;;;;;;;7.20;4.50;;;;;;;;;;107295;1271;64858;-29
2022/03/29 07:15:22;;;;;;;7.60;4.40;;;;;;;;;;107372;1271;64850;-28
2022/03/29 07:17:49;;;;;;;7.30;4.40;;;;;;;;;;107456;1271;64837;-27
2022/03/29 07:20:19;;;;;;;7.00;4.50;;;;;;;;;;107349;1271;64983;-27
2022/03/29 07:22:47;;;;;;;6.70;4.40;;;;;;;;;;107367;1271;64841;-34
2022/03/29 07:25:18;;;;;;;6.60;4.70;;;;;;;;;;107368;1271;64740;-35
2022/03/29 07:27:46;;;;;;;7.50;5.10;;;;;;;;;;107388;1271;64741;-33
2022/03/29 07:30:14;;;;;;;7.40;5.00;;;;;;;;;;107315;1271;64849;-36
2022/03/29 07:32:44;;;;;;;7.60;5.30;;;;;;;;;;107291;1271;64898;-45
2022/03/29 07:35:12;;;;;;;11.40;5.20;;;;;;;;;;107218;1271;64837;-32
2022/03/29 07:37:39;;;;;;;7.20;4.40;;;;;;;;;;107297;1271;64838;-32
2022/03/29 07:40:08;;;;;;;7.50;5.40;;;;;;;;;;107249;1271;64774;-32
2022/03/29 07:42:36;;;;;;;8.50;5.00;;;;;;;;;;107310;1271;64757;-32
2022/03/29 07:45:08;;;;;;;8.10;5.40;;;;;;;;;;107231;1274;64834;-32
2022/03/29 07:47:35;;;;;;;7.50;5.30;;;;;;;;;;107243;1274;64782;-31
2022/03/29 07:50:06;;;;;;;7.90;5.20;;;;;;;;;;107363;1271;64845;-32
2022/03/29 07:52:38;;;;;;;7.50;5.10;;;;;;;;;;107235;1271;64899;-30
2022/03/29 07:55:09;;;;;;;8.10;5.50;;;;;;;;;;107317;1271;64760;-29
2022/03/29 07:57:37;;;;;;;9.60;6.30;;;;;;;;;;109095;1271;65301;-32
2022/03/29 08:00:53;;;;;;;7.70;5.30;;;;;;;;;;109073;1271;62569;-33
2022/03/29 08:03:10;;;;;;;8.70;5.20;;;;;;;;;;107189;1274;64744;-33
2022/03/29 08:05:41;;;;;;;7.40;5.10;;;;;;;;;;107252;1274;64747;-33
2022/03/29 08:08:13;;;;;;;7.10;5.10;;;;;;;;;;107275;1274;64901;-30
2022/03/29 08:10:43;;;;;;;6.70;4.90;;;;;;;;;;107358;1271;64832;-27
2022/03/29 08:13:11;;;;;;;7.50;5.00;;;;;;;;;;107331;1271;64778;-28
2022/03/29 08:15:39;;;;;;;6.80;5.00;;;;;;;;;;107336;1271;64728;-27
2022/03/29 08:18:07;;;;;;;7.70;5.50;;;;;;;;;;107228;1274;64847;-27
2022/03/29 08:20:36;;;;;;;7.60;5.50;;;;;;;;;;107320;1271;64817;-32
2022/03/29 08:23:06;;;;;;;9.30;5.90;;;;;;;;;;107351;1271;64860;-29
2022/03/29 08:25:36;;;;;;;6.90;5.00;;;;;;;;;;107334;1271;64866;-31
2022/03/29 08:28:05;;;;;;;8.20;5.30;;;;;;;;;;107254;1274;64884;-33
2022/03/29 08:30:34;;;;;;;7.60;5.40;;;;;;;;;;107345;1271;63571;-32
2022/03/29 08:33:02;;;;;;;6.70;5.00;;;;;;;;;;107250;1272;64882;-31
2022/03/29 08:35:31;;;;;;;7.40;5.80;;;;;;;;;;107370;1271;65169;-28
2022/03/29 08:37:58;;;;;;;7.60;5.60;;;;;;;;;;107215;1272;64776;-28
2022/03/29 08:40:26;;;;;;;8.20;6.50;;;;;;;;;;107258;1271;64807;-29
2022/03/29 08:42:54;;;;;;;9.10;5.60;;;;;;;;;;107222;1274;64980;-33
2022/03/29 08:45:27;;;;;;;9.60;6.30;;;;;;;;;;107284;1271;64856;-33
2022/03/29 08:47:59;;;;;;;8.20;6.40;;;;;;;;;;107236;1272;64914;-28
2022/03/29 08:50:29;;;;;;;7.10;5.90;;;;;;;;;;107235;1274;64808;-29
2022/03/29 08:52:57;;;;;;;9.00;6.90;;;;;;;;;;107258;1271;64840;-40
2022/03/29 08:55:27;;;;;;;9.60;7.20;;;;;;;;;;107257;1271;64816;-33
2022/03/29 08:57:55;;;;;;;9.10;6.50;;;;;;;;;;107302;1271;64736;-37
2022/03/29 09:00:26;;;;;;;8.60;6.80;;;;;;;;;;107304;1276;64900;-33
2022/03/29 09:02:53;;;;;;;9.00;6.50;;;;;;;;;;107300;1271;64773;-33
2022/03/29 09:05:23;;;;;;;8.50;6.80;;;;;;;;;;107238;1271;64751;-31
2022/03/29 09:08:04;;;;;;;8.90;7.20;;;;;;;;;;107146;1272;64884;-28
2022/03/29 09:10:44;;;;;;;8.70;6.30;;;;;;;;;;107287;1271;65072;-30
2022/03/29 09:13:18;;;;;;;9.20;6.70;;;;;;;;;;107201;1273;64875;-31
2022/03/29 09:15:47;;;;;;;8.60;6.70;;;;;;;;;;107247;1271;64864;-30
2022/03/29 09:18:14;;;;;;;9.20;7.40;;;;;;;;;;107254;1271;64716;-32
2022/03/29 09:20:41;;;;;;;8.50;7.30;;;;;;;;;;107251;1271;64939;-26
2022/03/29 09:23:17;;;;;;;9.90;7.70;;;;;;;;;;107290;1271;63626;-27
2022/03/29 09:25:47;;;;;;;9.80;7.90;;;;;;;;;;107273;1274;64840;-34
2022/03/29 09:28:21;;;;;;;8.60;7.20;;;;;;;;;;107276;1271;64887;-35
2022/03/29 09:30:51;;;;;;;9.20;7.00;;;;;;;;;;107290;1271;64849;-32
2022/03/29 09:33:19;;;;;;;10.30;8.10;;;;;;;;;;107283;1271;64791;-30
2022/03/29 09:35:59;;;;;;;9.80;7.90;;;;;;;;;;107284;1271;64893;-36
2022/03/29 09:38:34;;;;;;;9.80;7.20;;;;;;;;;;107254;1271;65031;-31
2022/03/29 09:41:03;;;;;;;10.00;7.70;;;;;;;;;;107221;1274;64860;-51
2022/03/29 09:43:31;;;;;;;9.80;7.40;;;;;;;;;;107267;1271;64748;-35
2022/03/29 09:46:00;;;;;;;10.30;8.00;;;;;;;;;;107269;1271;64853;-31
2022/03/29 09:48:37;;;;;;;10.50;7.70;;;;;;;;;;107255;1271;64877;-30
2022/03/29 09:51:07;;;;;;;10.10;7.60;;;;;;;;;;107232;1274;65522;-32
2022/03/29 09:53:43;;;;;;;9.80;8.10;;;;;;;;;;107234;1271;65440;-28
2022/03/29 09:56:15;;;;;;;11.90;7.40;;;;;;;;;;107285;1271;64803;-29
2022/03/29 09:58:43;;;;;;;10.30;8.00;;;;;;;;;;107263;1271;64965;-36
2022/03/29 10:01:28;;;;;;;10.40;7.80;;;;;;;;;;107258;1274;64741;-30
2022/03/29 10:03:56;;;;;;;9.00;7.60;;;;;;;;;;107262;1271;65223;-30
2022/03/29 10:06:24;;;;;;;9.60;7.40;;;;;;;;;;107253;1271;64907;-28
2022/03/29 10:11:40;;;;;;;9.70;7.40;;;;;;;;;;107237;1271;64890;-27
2022/03/29 10:14:10;;;;;;;8.80;7.70;;;;;;;;;;107377;1271;64741;-28
2022/03/29 10:16:38;;;;;;;9.20;8.10;;;;;;;;;;107291;1274;64878;-43
2022/03/29 10:19:06;;;;;;;10.50;8.10;;;;;;;;;;107249;1271;64840;-34
2022/03/29 10:21:35;;;;;;;10.30;7.70;;;;;;;;;;107335;1271;64770;-31
2022/03/29 10:24:02;;;;;;;9.00;7.70;;;;;;;;;;107257;1272;64853;-32
2022/03/29 10:26:30;;;;;;;9.80;8.00;;;;;;;;;;107384;1271;63540;-29
2022/03/29 10:28:57;;;;;;;9.10;7.70;;;;;;;;;;107261;1271;65590;-30
2022/03/29 10:31:36;;;;;;;8.60;7.70;;;;;;;;;;107340;1271;64900;-33
2022/03/29 10:34:16;;;;;;;10.20;8.30;;;;;;;;;;107300;1272;64853;-32
2022/03/29 10:37:04;;;;;;;10.30;7.60;;;;;;;;;;107325;1271;65693;-30
2022/03/29 10:39:51;;;;;;;9.70;7.80;;;;;;;;;;107332;1271;64706;-28
2022/03/29 10:42:37;;;;;;;8.50;7.10;;;;;;;;;;107353;1271;64875;-29
2022/03/29 10:45:24;;;;;;;8.40;7.50;;;;;;;;;;107308;1271;64762;-29
2022/03/29 10:47:56;;;;;;;8.60;7.40;;;;;;;;;;107312;1271;64734;-37
2022/03/29 10:50:43;;;;;;;9.20;7.20;;;;;;;;;;107342;1271;64737;-29
2022/03/29 10:53:32;;;;;;;9.10;7.50;;;;;;;;;;107277;1271;64851;-29
2022/03/29 10:56:20;;;;;;;8.50;6.90;;;;;;;;;;107330;1271;65188;-35
2022/03/29 10:59:02;;;;;;;7.90;7.10;;;;;;;;;;107301;1271;64759;-29
2022/03/29 11:01:31;;;;;;;8.30;7.50;;;;;;;;;;107192;1271;64718;-32
2022/03/29 11:04:13;;;;;;;7.70;6.70;;;;;;;;;;107325;1271;64745;-32
2022/03/29 11:07:05;;;;;;;9.70;7.40;;;;;;;;;;107375;1271;64833;-31
2022/03/29 11:09:34;;;;;;;8.80;7.00;;;;;;;;;;107322;1271;64766;-30
2022/03/29 11:12:03;;;;;;;8.50;7.20;;;;;;;;;;107308;1271;64715;-29
2022/03/29 11:14:30;;;;;;;7.70;6.70;;;;;;;;;;107337;1271;64741;-28
2022/03/29 11:17:06;;;;;;;8.60;6.60;;;;;;;;;;107330;1271;64850;-29
2022/03/29 11:19:48;;;;;;;7.40;6.60;;;;;;;;;;107335;1271;64850;-31
2022/03/29 11:22:39;;;;;;;8.00;6.40;;;;;;;;;;107364;1271;64975;-33
2022/03/29 11:25:10;;;;;;;8.40;7.30;;;;;;;;;;107295;1271;64875;-29
2022/03/29 11:27:38;;;;;;;8.20;6.90;;;;;;;;;;107259;1271;64716;-27
2022/03/29 11:30:08;;;;;;;8.00;7.20;;;;;;;;;;107192;1272;64796;-29
2022/03/29 11:32:39;;;;;;;7.50;6.70;;;;;;;;;;107362;1271;64926;-30
2022/03/29 11:35:08;;;;;;;7.60;6.80;;;;;;;;;;107331;1271;64829;-31
2022/03/29 11:37:43;;;;;;;7.70;6.40;;;;;;;;;;107262;1271;64875;-30
2022/03/29 11:40:13;;;;;;;8.00;6.90;;;;;;;;;;107330;1271;64751;-28
2022/03/29 11:42:55;;;;;;;7.40;6.30;;;;;;;;;;107325;1271;64766;-29
2022/03/29 11:45:28;;;;;;;7.40;6.60;;;;;;;;;;107332;1271;64836;-29
2022/03/29 11:47:59;;;;;;;8.20;6.50;;;;;;;;;;107329;1271;65000;-29
2022/03/29 11:50:45;;;;;;;7.70;6.20;;;;;;;;;;107306;1271;64859;-27
2022/03/29 11:53:23;;;;;;;8.70;7.10;;;;;;;;;;107227;1271;64890;-29
2022/03/29 11:55:54;;;;;;;8.30;6.40;;;;;;;;;;107196;1272;64767;-29
2022/03/29 11:58:28;;;;;;;7.40;6.40;;;;;;;;;;107317;1271;65142;-31
2022/03/29 12:01:07;;;;;;;7.40;6.60;;;;;;;;;;107347;1271;64913;-28
2022/03/29 12:03:37;;;;;;;7.20;6.10;;;;;;;;;;107265;1271;64822;-29
2022/03/29 12:06:06;;;;;;;7.70;6.10;;;;;;;;;;107249;1271;64836;-29
2022/03/29 12:08:46;;;;;;;8.30;6.60;;;;;;;;;;107105;1274;64834;-30
2022/03/29 12:11:22;;;;;;;7.40;6.10;;;;;;;;;;107349;1271;64750;-28
2022/03/29 12:14:20;;;;;;;8.20;6.60;;;;;;;;;;107199;1274;64989;-27
2022/03/29 12:16:52;;;;;;;7.50;6.30;;;;;;;;;;107316;1271;64767;-29
2022/03/29 12:19:22;;;;;;;7.70;6.30;;;;;;;;;;107312;1271;65458;-26
2022/03/29 12:21:51;;;;;;;7.40;5.60;;;;;;;;;;107244;1271;64866;-28
2022/03/29 12:24:19;;;;;;;8.40;6.40;;;;;;;;;;107336;1271;64733;-28
2022/03/29 12:27:06;;;;;;;6.70;5.90;;;;;;;;;;107039;1271;428284;-29
2022/03/29 12:29:39;;;;;;;7.40;6.00;;;;;;;;;;107210;1271;65152;-25
2022/03/29 12:32:07;;;;;;;8.00;5.70;;;;;;;;;;107368;1271;64843;-27
2022/03/29 12:34:35;;;;;;;8.20;5.80;;;;;;;;;;107220;1271;64837;-27
2022/03/29 12:37:04;;;;;;;6.90;5.90;;;;;;;;;;107330;1271;64913;-29
2022/03/29 12:39:33;;;;;;;7.90;6.40;;;;;;;;;;107339;1271;64775;-29
2022/03/29 12:42:01;;;;;;;7.50;6.00;;;;;;;;;;107341;1271;64851;-29
2022/03/29 12:44:32;;;;;;;7.20;5.60;;;;;;;;;;107334;1271;64920;-29
2022/03/29 12:46:59;;;;;;;8.10;5.70;;;;;;;;;;107313;1271;64840;-27
2022/03/29 12:49:27;;;;;;;7.10;5.70;;;;;;;;;;107384;1271;64769;-28
2022/03/29 12:51:57;;;;;;;7.40;5.80;;;;;;;;;;107335;1271;64769;-28
2022/03/29 12:54:36;;;;;;;6.50;5.30;;;;;;;;;;107306;1271;64745;-28
2022/03/29 12:57:06;;;;;;;6.40;5.40;;;;;;;;;;107244;1271;64786;-28
2022/03/29 12:59:40;;;;;;;7.60;5.50;;;;;;;;;;107349;1271;64759;-28
2022/03/29 13:02:26;;;;;;;8.50;5.60;;;;;;;;;;107381;1271;64695;-28
2022/03/29 13:04:57;;;;;;;7.10;5.80;;;;;;;;;;107298;1271;64949;-28
2022/03/29 13:07:48;;;;;;;6.70;5.10;;;;;;;;;;107288;1271;64986;-28
2022/03/29 13:10:25;;;;;;;7.30;5.30;;;;;;;;;;107336;1271;65961;-27
2022/03/29 13:13:07;;;;;;;7.20;5.20;;;;;;;;;;107263;1271;64849;-29
2022/03/29 13:15:54;;;;;;;7.70;5.10;;;;;;;;;;107382;1271;64745;-28
2022/03/29 13:18:36;;;;;;;7.30;5.40;;;;;;;;;;107348;1271;64976;-30
2022/03/29 13:21:14;;;;;;;7.70;6.20;;;;;;;;;;107330;1271;64783;-27
2022/03/29 13:23:46;;;;;;;7.90;5.90;;;;;;;;;;107259;1271;64724;-27
2022/03/29 13:26:15;;;;;;;8.30;6.50;;;;;;;;;;107334;1271;64878;-28
2022/03/29 13:28:43;;;;;;;9.90;7.00;;;;;;;;;;107405;1271;64756;-28
2022/03/29 13:31:17;;;;;;;8.60;6.80;;;;;;;;;;107370;1271;65199;-26
2022/03/29 13:33:52;;;;;;;8.00;5.90;;;;;;;;;;107342;1271;64701;-28
2022/03/29 13:36:21;;;;;;;7.30;5.90;;;;;;;;;;107342;1271;64878;-28
2022/03/29 13:38:51;;;;;;;7.10;6.10;;;;;;;;;;107392;1271;64814;-27
2022/03/29 13:41:19;;;;;;;8.90;6.60;;;;;;;;;;107270;1272;64798;-27
2022/03/29 13:43:47;;;;;;;8.20;6.20;;;;;;;;;;107370;1271;64857;-26
2022/03/29 13:46:15;;;;;;;7.70;5.90;;;;;;;;;;107356;1271;64888;-28
2022/03/29 13:48:43;;;;;;;7.80;6.00;;;;;;;;;;107339;1271;64853;-28
2022/03/29 13:51:14;;;;;;;9.00;6.30;;;;;;;;;;107393;1271;64959;-25
2022/03/29 13:53:43;;;;;;;8.40;6.30;;;;;;;;;;107274;1271;64930;-27
2022/03/29 13:56:11;;;;;;;8.70;6.00;;;;;;;;;;107305;1271;64847;-29
2022/03/29 13:58:39;;;;;;;7.80;5.50;;;;;;;;;;107377;1271;64766;-29
2022/03/29 14:01:06;;;;;;;8.20;6.30;;;;;;;;;;107309;1271;64948;-29
2022/03/29 14:03:35;;;;;;;9.30;6.60;;;;;;;;;;107249;1271;64834;-29
2022/03/29 14:06:03;;;;;;;8.20;5.90;;;;;;;;;;107402;1271;64849;-27
2022/03/29 14:08:31;;;;;;;6.80;5.70;;;;;;;;;;107297;1271;64852;-27
2022/03/29 14:11:00;;;;;;;39.80;8.10;;;;;;;;;;107359;1271;64837;-27
2022/03/29 14:13:29;;;;;;;7.20;5.70;;;;;;;;;;107277;1271;64741;-27
2022/03/29 14:15:58;;;;;;;8.10;5.80;;;;;;;;;;107196;1272;64932;-28
2022/03/29 14:18:27;;;;;;;8.30;5.90;;;;;;;;;;107289;1271;64887;-27
2022/03/29 14:20:55;;;;;;;10.40;7.80;;;;;;;;;;107267;1271;64874;-28
2022/03/29 14:23:22;;;;;;;10.60;7.70;;;;;;;;;;107269;1274;64942;-30
2022/03/29 14:25:51;;;;;;;8.20;6.30;;;;;;;;;;107185;1273;64766;-29
2022/03/29 14:28:19;;;;;;;8.40;6.20;;;;;;;;;;107252;1271;64910;-28
2022/03/29 14:30:47;;;;;;;9.00;6.40;;;;;;;;;;107319;1271;64952;-27
2022/03/29 14:33:15;;;;;;;8.90;6.20;;;;;;;;;;107358;1271;64722;-28
2022/03/29 14:35:48;;;;;;;8.30;6.50;;;;;;;;;;107305;1271;64795;-27
2022/03/29 14:38:16;;;;;;;8.40;7.50;;;;;;;;;;107327;1271;64843;-27
2022/03/29 14:40:46;;;;;;;8.80;6.10;;;;;;;;;;107373;1271;64740;-29
2022/03/29 14:43:14;;;;;;;8.70;6.90;;;;;;;;;;107397;1271;64841;-28
2022/03/29 14:45:42;;;;;;;8.80;6.80;;;;;;;;;;107384;1271;64919;-27
2022/03/29 14:48:09;;;;;;;10.20;6.90;;;;;;;;;;107330;1271;64762;-27
2022/03/29 14:50:36;;;;;;;9.50;6.70;;;;;;;;;;107330;1271;64797;-38
2022/03/29 14:53:06;;;;;;;9.30;7.10;;;;;;;;;;107331;1271;64850;-27
2022/03/29 14:55:35;;;;;;;8.00;6.10;;;;;;;;;;107345;1271;64823;-27
2022/03/29 14:58:04;;;;;;;9.00;6.20;;;;;;;;;;107353;1271;64734;-27
2022/03/29 15:00:32;;;;;;;8.60;6.60;;;;;;;;;;107379;1271;64879;-28
2022/03/29 15:02:59;;;;;;;7.70;6.00;;;;;;;;;;107315;1271;64878;-28